Time;durP1;ratioP1;P1;durP2;ratioP2;P2;SDS_P1;SDS_P2;PMS_P1;PMS_P2;Temp;Humidity;BMP_temperature;BMP_pressure;BME280_temperature;BME280_humidity;BME280_pressure;Samples;Min_cycle;Max_cycle;Signal;HPM_P1;HPM_P2
2022/08/04 00:01:11;;;;;;;2.22;0.85;;;15.80;78.70;;;;;;4985684;28;20030;-73
2022/08/04 00:03:52;;;;;;;1.42;0.65;;;15.80;78.60;;;;;;4990683;28;20022;-83
2022/08/04 00:06:33;;;;;;;2.38;0.77;;;15.80;78.50;;;;;;4986608;28;20122;-73
2022/08/04 00:09:06;;;;;;;1.83;0.90;;;15.80;78.50;;;;;;4982457;28;20488;-78
2022/08/04 00:11:33;;;;;;;10.63;1.42;;;15.80;78.70;;;;;;4985948;28;20030;-76
2022/08/04 00:14:14;;;;;;;7.63;0.80;;;15.80;78.70;;;;;;4989444;28;20117;-77
2022/08/04 00:16:43;;;;;;;4.70;0.63;;;15.80;78.70;;;;;;4988347;28;20470;-78
2022/08/04 00:19:31;;;;;;;1.73;0.60;;;15.80;78.80;;;;;;4984975;28;20096;-72
2022/08/04 00:22:05;;;;;;;2.58;0.73;;;15.80;78.90;;;;;;4983973;28;20486;-77
2022/08/04 00:24:34;;;;;;;3.05;0.40;;;15.80;78.80;;;;;;4988408;28;20125;-73
2022/08/04 00:27:01;;;;;;;4.57;0.90;;;15.80;78.80;;;;;;4988311;28;20037;-75
2022/08/04 00:29:28;;;;;;;0.73;0.65;;;15.70;78.70;;;;;;4987658;28;20046;-78
2022/08/04 00:31:55;;;;;;;2.83;0.80;;;15.70;78.70;;;;;;4986468;28;20344;-80
2022/08/04 00:34:30;;;;;;;0.40;0.40;;;15.80;78.80;;;;;;4983177;28;20034;-72
2022/08/04 00:37:36;;;;;;;2.13;0.60;;;15.70;78.80;;;;;;4982202;28;20030;-70
2022/08/04 00:40:42;;;;;;;0.80;0.80;;;15.70;78.80;;;;;;4981053;28;20027;-73
2022/08/04 00:43:34;;;;;;;1.30;0.70;;;15.70;78.90;;;;;;4982392;28;20037;-76
2022/08/04 00:46:21;;;;;;;1.35;0.93;;;15.70;78.90;;;;;;4986799;28;20081;-72
2022/08/04 00:49:25;;;;;;;2.40;0.75;;;15.70;79.10;;;;;;4981906;28;20031;-77
2022/08/04 00:52:23;;;;;;;2.75;0.65;;;15.70;79.30;;;;;;4997296;28;20038;-78
2022/08/04 00:55:06;;;;;;;0.80;0.60;;;15.70;79.70;;;;;;4981513;28;20057;-78
2022/08/04 00:57:51;;;;;;;31.88;2.28;;;15.70;79.80;;;;;;4988281;28;20112;-78
2022/08/04 01:00:18;;;;;;;3.20;1.88;;;15.70;79.80;;;;;;4983406;28;20033;-75
2022/08/04 01:03:19;;;;;;;9.07;2.05;;;15.70;80.00;;;;;;4987017;28;20026;-72
2022/08/04 01:05:57;;;;;;;18.52;1.70;;;15.70;80.00;;;;;;4984353;28;20060;-74
2022/08/04 01:08:46;;;;;;;3.13;0.68;;;15.70;80.10;;;;;;4984236;28;20065;-75
2022/08/04 01:11:31;;;;;;;2.50;0.80;;;15.70;80.30;;;;;;4981163;28;20040;-73
2022/08/04 01:14:11;;;;;;;3.05;0.80;;;15.70;80.50;;;;;;4980472;28;20014;-78
2022/08/04 01:16:50;;;;;;;1.80;0.70;;;15.70;80.80;;;;;;4981436;28;20030;-74
2022/08/04 01:19:23;;;;;;;6.90;1.15;;;15.70;81.00;;;;;;4988751;28;20031;-71
2022/08/04 01:22:14;;;;;;;6.72;1.50;;;15.70;81.10;;;;;;4983451;28;20030;-75
2022/08/04 01:25:18;;;;;;;1.90;0.70;;;15.70;81.00;;;;;;4986834;28;20124;-79
2022/08/04 01:27:54;;;;;;;3.22;0.82;;;15.60;81.00;;;;;;4984345;28;20385;-75
2022/08/04 01:30:20;;;;;;;1.42;0.50;;;15.70;81.30;;;;;;4985327;28;20030;-73
2022/08/04 01:33:12;;;;;;;0.90;0.55;;;15.60;81.40;;;;;;4986881;28;20034;-81
2022/08/04 01:35:55;;;;;;;2.00;0.52;;;15.60;81.50;;;;;;4988653;28;20023;-73
2022/08/04 01:38:41;;;;;;;4.20;0.60;;;15.60;81.40;;;;;;4989041;28;20110;-78
2022/08/04 01:41:13;;;;;;;0.60;0.50;;;15.60;81.30;;;;;;4983749;28;20042;-75
2022/08/04 01:43:42;;;;;;;5.20;0.43;;;15.60;81.20;;;;;;4983667;28;20084;-72
2022/08/04 01:46:17;;;;;;;2.88;0.80;;;15.60;81.20;;;;;;4985800;28;20066;-78
2022/08/04 01:48:52;;;;;;;3.95;0.60;;;15.60;81.20;;;;;;4981663;28;20085;-76
2022/08/04 01:51:21;;;;;;;0.93;0.60;;;15.60;81.20;;;;;;4981883;28;20425;-70
2022/08/04 01:53:48;;;;;;;1.92;0.70;;;15.60;81.30;;;;;;4984547;28;20036;-70
2022/08/04 01:56:15;;;;;;;0.45;0.40;;;15.60;81.30;;;;;;4980654;28;20150;-74
2022/08/04 01:58:41;;;;;;;2.33;0.50;;;15.50;81.20;;;;;;4987563;28;20035;-78
2022/08/04 02:01:10;;;;;;;1.85;0.43;;;15.50;81.30;;;;;;4985217;28;20032;-73
2022/08/04 02:03:39;;;;;;;3.40;0.60;;;15.60;81.40;;;;;;4983326;28;20026;-75
2022/08/04 02:06:45;;;;;;;6.30;1.45;;;15.50;81.50;;;;;;4986966;28;20054;-78
2022/08/04 02:09:26;;;;;;;2.70;1.25;;;15.50;81.60;;;;;;4982549;28;20025;-79
2022/08/04 02:12:24;;;;;;;2.38;1.55;;;15.60;81.90;;;;;;4985350;28;20033;-78
2022/08/04 02:15:06;;;;;;;2.53;0.90;;;15.60;81.90;;;;;;4982791;28;20022;-79
2022/08/04 02:17:56;;;;;;;3.00;1.67;;;15.60;81.80;;;;;;4982055;28;20029;-75
2022/08/04 02:20:34;;;;;;;1.98;0.95;;;15.60;81.80;;;;;;4984941;28;20064;-77
2022/08/04 02:23:07;;;;;;;3.05;1.30;;;15.60;81.70;;;;;;4979506;28;20069;-72
2022/08/04 02:25:46;;;;;;;8.02;1.67;;;15.60;81.70;;;;;;4982130;28;20039;-72
2022/08/04 02:28:27;;;;;;;9.88;1.20;;;15.60;81.60;;;;;;4983114;28;20031;-72
2022/08/04 02:31:08;;;;;;;8.48;0.90;;;15.60;81.80;;;;;;4982572;28;20023;-75
2022/08/04 02:33:42;;;;;;;1.00;0.43;;;15.60;81.90;;;;;;4984791;28;20447;-72
2022/08/04 02:36:19;;;;;;;9.70;1.10;;;15.60;81.90;;;;;;4984542;28;20019;-79
2022/08/04 02:39:04;;;;;;;3.33;1.75;;;15.60;81.90;;;;;;4982171;28;20069;-82
2022/08/04 02:41:32;;;;;;;2.72;0.30;;;15.60;82.00;;;;;;4984358;28;20052;-75
2022/08/04 02:44:04;;;;;;;0.60;0.55;;;15.60;82.00;;;;;;4988469;28;20026;-79
2022/08/04 02:46:32;;;;;;;0.85;0.47;;;15.60;82.00;;;;;;4985749;28;20489;-72
2022/08/04 02:49:03;;;;;;;1.52;0.98;;;15.60;82.10;;;;;;4983174;28;20477;-74
2022/08/04 02:51:36;;;;;;;1.05;0.50;;;15.50;82.10;;;;;;4980219;28;20026;-74
2022/08/04 02:54:04;;;;;;;3.75;0.63;;;15.60;82.20;;;;;;4986831;28;20058;-78
2022/08/04 02:56:33;;;;;;;3.35;0.45;;;15.60;82.40;;;;;;4981873;28;20057;-80
2022/08/04 02:59:22;;;;;;;0.55;0.30;;;15.50;82.40;;;;;;4985501;28;20027;-77
2022/08/04 03:01:48;;;;;;;6.93;0.88;;;15.60;82.50;;;;;;4986087;28;20030;-78
2022/08/04 03:04:21;;;;;;;16.73;0.85;;;15.50;82.50;;;;;;4983323;28;20038;-77
2022/08/04 03:07:17;;;;;;;3.25;0.30;;;15.60;82.90;;;;;;4999475;28;20050;-77
2022/08/04 03:10:12;;;;;;;5.38;0.73;;;15.50;83.20;;;;;;4979789;28;20066;-81
2022/08/04 03:13:06;;;;;;;4.40;1.20;;;15.60;83.60;;;;;;4978410;28;20367;-79
2022/08/04 03:15:52;;;;;;;15.85;1.23;;;15.60;84.10;;;;;;4982696;28;20020;-73
2022/08/04 03:18:43;;;;;;;11.48;0.82;;;15.60;84.40;;;;;;4986229;28;20026;-73
2022/08/04 03:21:25;;;;;;;7.00;0.57;;;15.60;84.50;;;;;;4986304;28;20030;-75
2022/08/04 03:24:19;;;;;;;10.90;0.73;;;15.60;84.20;;;;;;4983417;28;20022;-76
2022/08/04 03:26:50;;;;;;;11.38;9.20;;;15.50;83.50;;;;;;4980117;28;20038;-74
2022/08/04 03:29:32;;;;;;;17.65;8.77;;;15.50;83.50;;;;;;4979621;28;20448;-71
2022/08/04 03:32:28;;;;;;;14.10;5.57;;;15.50;84.10;;;;;;4986059;28;20095;-74
2022/08/04 03:35:10;;;;;;;3.97;2.17;;;15.50;82.90;;;;;;4986203;28;20535;-74
2022/08/04 03:37:45;;;;;;;2.13;1.15;;;15.50;82.60;;;;;;4982788;28;20019;-75
2022/08/04 03:41:00;;;;;;;3.10;1.17;;;15.50;82.40;;;;;;4987154;28;20030;-76
2022/08/04 03:43:39;;;;;;;6.68;1.00;;;15.40;82.00;;;;;;5000512;28;20038;-73
2022/08/04 03:46:14;;;;;;;3.28;1.08;;;15.40;82.00;;;;;;4988612;28;20550;-81
2022/08/04 03:48:40;;;;;;;;;;;15.40;81.90;;;;;;4989942;28;20482;-74
2022/08/04 03:54:31;;;;;;;7.18;3.10;;;15.40;81.70;;;;;;4987338;28;20069;-73
2022/08/04 03:57:28;;;;;;;16.47;5.07;;;15.40;81.50;;;;;;4983255;28;20033;-76
2022/08/04 04:00:16;;;;;;;7.28;2.33;;;15.40;81.30;;;;;;4987858;28;20077;-73
2022/08/04 04:03:24;;;;;;;3.55;1.60;;;15.40;81.30;;;;;;4980260;28;20031;-73
2022/08/04 04:05:59;;;;;;;2.42;1.00;;;15.30;81.20;;;;;;4936675;28;20593;-72
2022/08/04 04:08:37;;;;;;;2.20;0.98;;;15.40;81.30;;;;;;4981368;28;20041;-72
2022/08/04 04:11:31;;;;;;;1.48;0.88;;;15.40;81.30;;;;;;4985414;28;20030;-75
2022/08/04 04:14:12;;;;;;;1.25;0.60;;;15.30;81.30;;;;;;4980497;28;20022;-73
2022/08/04 04:17:05;;;;;;;4.90;0.80;;;15.30;81.20;;;;;;4987883;28;20033;-75
2022/08/04 04:20:00;;;;;;;1.45;1.00;;;15.30;81.10;;;;;;4984927;28;20026;-73
2022/08/04 04:23:01;;;;;;;2.47;0.50;;;15.30;81.10;;;;;;4997201;28;20442;-74
2022/08/04 04:25:35;;;;;;;14.32;1.10;;;15.30;81.00;;;;;;4992048;28;20034;-73
2022/08/04 04:28:29;;;;;;;1.03;0.80;;;15.30;81.00;;;;;;4983031;28;20105;-70
2022/08/04 04:31:17;;;;;;;25.90;13.82;;;15.30;81.50;;;;;;4983697;28;20302;-72
2022/08/04 04:34:05;;;;;;;16.70;10.07;;;15.30;81.70;;;;;;4983076;28;20517;-77
2022/08/04 04:37:06;;;;;;;9.05;5.75;;;15.30;82.20;;;;;;4997475;28;20026;-75
2022/08/04 04:39:51;;;;;;;16.48;12.60;;;15.20;82.30;;;;;;4988043;28;20022;-77
2022/08/04 04:42:38;;;;;;;20.80;16.38;;;15.20;82.20;;;;;;4986841;28;20037;-72
2022/08/04 04:45:26;;;;;;;9.13;8.00;;;15.20;82.30;;;;;;4986046;28;20383;-70
2022/08/04 04:47:59;;;;;;;5.57;4.30;;;15.20;82.20;;;;;;4979258;28;20034;-75
2022/08/04 04:50:58;;;;;;;7.93;3.05;;;15.20;82.20;;;;;;4983843;28;20030;-85
2022/08/04 04:53:51;;;;;;;3.53;2.08;;;15.20;82.10;;;;;;4986954;28;20019;-78
2022/08/04 04:56:46;;;;;;;1.90;1.20;;;15.20;82.00;;;;;;5003975;28;20508;-71
2022/08/04 04:59:21;;;;;;;1.40;0.63;;;15.10;82.00;;;;;;4989197;28;20117;-73
2022/08/04 05:02:34;;;;;;;1.45;0.77;;;15.10;82.00;;;;;;4986342;28;20038;-80
2022/08/04 05:05:10;;;;;;;2.22;1.02;;;15.10;81.90;;;;;;4986246;28;20034;-74
2022/08/04 05:08:13;;;;;;;1.23;0.80;;;15.10;81.90;;;;;;4985046;28;20270;-73
2022/08/04 05:11:03;;;;;;;0.95;0.70;;;15.10;81.90;;;;;;4982986;28;20027;-73
2022/08/04 05:13:42;;;;;;;2.30;0.60;;;15.10;81.80;;;;;;4987814;28;20022;-73
2022/08/04 05:16:15;;;;;;;1.02;0.93;;;15.10;81.90;;;;;;4991337;28;20084;-77
2022/08/04 05:18:47;;;;;;;3.72;0.90;;;15.10;81.90;;;;;;4983267;28;20595;-78
2022/08/04 05:21:26;;;;;;;5.43;1.13;;;15.10;81.80;;;;;;4986811;28;20030;-75
2022/08/04 05:23:59;;;;;;;1.55;0.98;;;15.10;81.90;;;;;;4980932;28;20023;-72
2022/08/04 05:26:30;;;;;;;10.52;2.55;;;15.10;82.00;;;;;;4986145;28;20116;-74
2022/08/04 05:28:59;;;;;;;14.98;3.78;;;15.10;82.20;;;;;;4983694;28;20508;-76
2022/08/04 05:31:37;;;;;;;19.55;6.20;;;15.10;82.50;;;;;;4979516;28;20161;-73
2022/08/04 05:34:31;;;;;;;14.40;6.35;;;15.20;83.70;;;;;;4983637;28;20030;-71
2022/08/04 05:37:02;;;;;;;13.90;4.32;;;15.20;83.60;;;;;;4986971;28;20329;-77
2022/08/04 05:39:34;;;;;;;39.00;4.18;;;15.20;83.30;;;;;;4981400;28;20579;-71
2022/08/04 05:42:01;;;;;;;1.70;1.40;;;15.20;83.30;;;;;;4981261;28;20134;-73
2022/08/04 05:44:28;;;;;;;3.15;1.27;;;15.20;83.50;;;;;;4981203;28;20027;-72
2022/08/04 05:46:57;;;;;;;3.70;1.50;;;15.20;83.50;;;;;;4979895;28;20045;-71
2022/08/04 05:49:26;;;;;;;1.00;0.90;;;15.20;83.20;;;;;;4980888;28;20039;-70
2022/08/04 05:51:56;;;;;;;3.60;1.05;;;15.20;83.00;;;;;;4979936;28;20415;-71
2022/08/04 05:54:23;;;;;;;2.20;1.10;;;15.20;83.20;;;;;;4977941;28;20092;-70
2022/08/04 05:56:52;;;;;;;1.58;0.85;;;15.20;83.20;;;;;;4981051;28;20026;-75
2022/08/04 05:59:19;;;;;;;5.22;1.52;;;15.20;83.00;;;;;;4982507;28;20026;-71
2022/08/04 06:01:47;;;;;;;6.75;1.63;;;15.20;82.70;;;;;;4983707;28;20030;-76
2022/08/04 06:04:15;;;;;;;8.60;1.77;;;15.20;82.50;;;;;;4984307;28;20046;-82
2022/08/04 06:06:43;;;;;;;15.70;1.90;;;15.20;82.70;;;;;;4981389;28;20054;-73
2022/08/04 06:09:10;;;;;;;9.00;1.73;;;15.20;83.20;;;;;;4983797;28;20029;-80
2022/08/04 06:11:39;;;;;;;1.52;1.00;;;15.20;83.10;;;;;;4978610;28;20061;-71
2022/08/04 06:14:09;;;;;;;3.83;0.98;;;15.20;82.80;;;;;;4980100;28;20034;-75
2022/08/04 06:16:41;;;;;;;2.75;1.20;;;15.20;82.70;;;;;;4985522;28;20014;-72
2022/08/04 06:19:10;;;;;;;7.82;1.40;;;15.20;83.10;;;;;;4978732;28;20042;-71
2022/08/04 06:21:39;;;;;;;1.60;0.82;;;15.20;83.20;;;;;;4984259;28;20429;-75
2022/08/04 06:24:11;;;;;;;4.43;1.10;;;15.20;83.30;;;;;;4995609;28;20578;-73
2022/08/04 06:26:39;;;;;;;2.35;0.82;;;15.20;83.10;;;;;;4983185;28;20053;-74
2022/08/04 06:29:15;;;;;;;11.45;8.93;;;15.20;83.30;;;;;;4981259;28;20027;-73
2022/08/04 06:31:46;;;;;;;10.70;7.45;;;15.30;83.60;;;;;;4975739;28;20053;-75
2022/08/04 06:34:15;;;;;;;10.15;6.78;;;15.30;83.70;;;;;;4983013;28;20027;-72
2022/08/04 06:36:43;;;;;;;5.60;3.85;;;15.30;83.50;;;;;;4975653;28;20027;-72
2022/08/04 06:39:10;;;;;;;7.53;3.15;;;15.30;83.40;;;;;;4985229;28;20051;-74
2022/08/04 06:41:37;;;;;;;3.03;1.60;;;15.30;83.10;;;;;;4979872;28;20027;-73
2022/08/04 06:44:09;;;;;;;4.88;2.35;;;15.30;82.80;;;;;;4981153;28;20166;-75
2022/08/04 06:46:40;;;;;;;4.18;1.40;;;15.30;82.70;;;;;;4976648;28;20023;-71
2022/08/04 06:49:07;;;;;;;1.83;0.82;;;15.30;82.60;;;;;;4983779;28;20170;-70
2022/08/04 06:51:36;;;;;;;1.90;1.10;;;15.30;82.60;;;;;;4982928;28;20177;-74
2022/08/04 06:54:03;;;;;;;16.67;10.07;;;15.30;82.70;;;;;;4980134;28;20127;-71
2022/08/04 06:56:32;;;;;;;36.28;15.75;;;15.30;83.00;;;;;;4984621;28;20027;-72
2022/08/04 06:59:00;;;;;;;30.05;10.18;;;15.40;83.50;;;;;;4979791;28;20018;-73
2022/08/04 07:01:28;;;;;;;12.60;7.05;;;15.40;83.80;;;;;;4984988;28;20574;-71
2022/08/04 07:03:54;;;;;;;10.32;5.63;;;15.40;83.70;;;;;;4977979;28;20528;-72
2022/08/04 07:06:24;;;;;;;8.90;2.60;;;15.40;83.80;;;;;;4984776;28;20101;-74
2022/08/04 07:08:51;;;;;;;3.95;1.58;;;15.40;83.70;;;;;;4984333;28;20030;-70
2022/08/04 07:11:19;;;;;;;2.15;1.30;;;15.50;83.50;;;;;;4984637;28;20026;-72
2022/08/04 07:13:48;;;;;;;3.95;1.40;;;15.50;83.10;;;;;;4979314;28;20061;-73
2022/08/04 07:16:17;;;;;;;3.53;1.20;;;15.40;82.80;;;;;;4983886;28;20042;-69
2022/08/04 07:18:44;;;;;;;4.85;1.33;;;15.40;82.60;;;;;;4987650;28;21313;-72
2022/08/04 07:21:17;;;;;;;5.93;0.90;;;15.40;82.50;;;;;;4982869;28;20052;-72
2022/08/04 07:23:45;;;;;;;3.13;0.82;;;15.50;82.60;;;;;;4986896;28;20026;-68
2022/08/04 07:26:14;;;;;;;4.88;1.40;;;15.50;82.50;;;;;;4989090;28;20045;-70
2022/08/04 07:28:41;;;;;;;1.58;1.30;;;15.40;82.40;;;;;;4986458;28;20106;-70
2022/08/04 07:31:12;;;;;;;2.53;0.75;;;15.50;82.40;;;;;;4985081;28;20331;-73
2022/08/04 07:33:42;;;;;;;4.32;1.55;;;15.50;82.40;;;;;;4984913;28;20030;-73
2022/08/04 07:36:09;;;;;;;1.17;0.88;;;15.60;82.40;;;;;;4988343;28;20555;-74
2022/08/04 07:38:35;;;;;;;5.50;0.73;;;15.60;82.40;;;;;;4982081;28;20082;-75
2022/08/04 07:41:04;;;;;;;5.53;1.45;;;15.60;82.40;;;;;;4982995;28;20015;-70
2022/08/04 07:43:31;;;;;;;2.72;0.80;;;15.60;82.30;;;;;;4986566;28;20057;-70
2022/08/04 07:45:58;;;;;;;2.63;1.38;;;15.60;82.10;;;;;;4979868;28;20038;-73
2022/08/04 07:48:24;;;;;;;1.55;0.90;;;15.70;82.10;;;;;;4987518;28;20023;-72
2022/08/04 07:50:52;;;;;;;17.88;4.88;;;15.70;82.00;;;;;;4985229;28;20097;-69
2022/08/04 07:53:20;;;;;;;6.47;3.88;;;15.70;82.20;;;;;;4983808;28;20392;-71
2022/08/04 07:55:47;;;;;;;5.57;2.83;;;15.70;82.50;;;;;;4981963;28;20422;-69
2022/08/04 07:58:13;;;;;;;7.95;2.45;;;15.70;82.80;;;;;;4985481;28;20022;-74
2022/08/04 08:00:40;;;;;;;9.52;2.25;;;15.80;83.00;;;;;;4981839;28;20019;-69
2022/08/04 10:17:06;;;;;;;1.58;0.25;;;16.30;80.60;;;;;;6165785;22;3014809;-71
2022/08/04 10:19:37;;;;;;;5.32;1.02;;;16.60;78.70;;;;;;6249392;23;20008;-68
2022/08/04 10:22:08;;;;;;;20.38;2.40;;;16.70;78.00;;;;;;6247816;23;20367;-71
2022/08/04 10:24:50;;;;;;;69.47;47.47;;;16.70;77.50;;;;;;6250861;23;20058;-70
2022/08/04 10:27:28;;;;;;;61.53;46.15;;;16.80;77.50;;;;;;6249428;23;20058;-72
2022/08/04 10:30:02;;;;;;;43.05;30.15;;;16.90;77.50;;;;;;6249146;23;20038;-70
2022/08/04 10:33:01;;;;;;;28.83;16.83;;;17.00;78.00;;;;;;6249934;23;20008;-72
2022/08/04 10:35:36;;;;;;;29.48;13.57;;;17.00;77.80;;;;;;6248167;23;20194;-74
2022/08/04 10:38:18;;;;;;;12.27;10.55;;;17.10;77.60;;;;;;6249502;23;20047;-73
2022/08/04 10:41:05;;;;;;;14.18;8.38;;;17.10;77.30;;;;;;6249565;23;20082;-72
2022/08/04 10:43:42;;;;;;;5.70;5.03;;;17.20;77.30;;;;;;6247707;23;20018;-71
2022/08/04 10:46:17;;;;;;;7.53;4.30;;;17.30;77.20;;;;;;6246435;23;20382;-73
2022/08/04 10:48:57;;;;;;;5.65;3.55;;;17.40;77.00;;;;;;6248406;23;20043;-70
2022/08/04 10:51:38;;;;;;;4.97;2.40;;;17.30;76.70;;;;;;6248418;23;19996;-71
2022/08/04 10:54:10;;;;;;;5.72;2.05;;;17.40;76.70;;;;;;6249579;23;20316;-71
2022/08/04 10:56:52;;;;;;;3.97;1.42;;;17.40;76.30;;;;;;6248068;23;20004;-70
2022/08/04 10:59:52;;;;;;;2.00;1.13;;;17.40;76.00;;;;;;6249326;23;20031;-73
2022/08/04 11:02:38;;;;;;;4.30;1.55;;;17.40;75.80;;;;;;6243322;23;20026;-70
2022/08/04 11:05:18;;;;;;;7.60;2.67;;;17.50;76.00;;;;;;6222208;23;20324;-70
2022/08/04 11:07:49;;;;;;;3.25;1.00;;;17.50;75.50;;;;;;6249531;23;20066;-69
2022/08/04 11:10:20;;;;;;;5.35;1.27;;;17.50;75.40;;;;;;6247893;23;20427;-70
2022/08/04 11:12:53;;;;;;;2.90;0.80;;;17.60;75.80;;;;;;6249457;23;20006;-70
2022/08/04 11:15:24;;;;;;;5.57;1.65;;;17.70;76.00;;;;;;6247540;23;20451;-69
2022/08/04 11:18:01;;;;;;;3.95;1.20;;;17.70;75.90;;;;;;6241840;23;20332;-71
2022/08/04 11:20:56;;;;;;;3.97;1.10;;;17.80;75.90;;;;;;6242388;23;20008;-70
2022/08/04 11:23:28;;;;;;;8.98;1.35;;;17.90;75.80;;;;;;6241137;23;20005;-73
2022/08/04 11:26:20;;;;;;;7.88;0.75;;;17.90;75.70;;;;;;6242440;23;20435;-71
2022/08/04 11:28:56;;;;;;;5.25;1.00;;;18.00;75.60;;;;;;6242963;23;20001;-70
2022/08/04 11:31:27;;;;;;;3.50;0.98;;;18.10;75.70;;;;;;6240843;23;20479;-70
2022/08/04 11:34:09;;;;;;;3.35;1.15;;;18.20;75.70;;;;;;6239903;23;20612;-70
2022/08/04 11:36:53;;;;;;;1.80;0.60;;;18.30;75.50;;;;;;6242681;23;20011;-72
2022/08/04 11:39:32;;;;;;;3.85;0.88;;;18.30;75.00;;;;;;6241780;23;19996;-71
2022/08/04 11:42:07;;;;;;;1.45;0.98;;;18.30;74.70;;;;;;6242454;23;20423;-73
2022/08/04 11:44:42;;;;;;;2.15;0.77;;;18.40;74.80;;;;;;6237924;23;20016;-70
2022/08/04 11:47:38;;;;;;;2.47;1.17;;;18.40;74.50;;;;;;6240389;23;20012;-72
2022/08/04 11:50:13;;;;;;;;;;;18.40;74.60;;;;;;6242366;23;20001;-73
2022/08/04 11:52:43;;;;;;;8.83;3.83;;;18.40;75.00;;;;;;6240625;23;20234;-72
2022/08/04 11:55:13;;;;;;;4.55;2.90;;;18.40;75.00;;;;;;6242777;23;20000;-70
2022/08/04 11:57:40;;;;;;;6.88;2.15;;;18.50;74.60;;;;;;6241035;23;20514;-70
2022/08/04 12:00:11;;;;;;;3.75;1.52;;;18.50;74.20;;;;;;6242150;23;20700;-71
2022/08/04 12:03:15;;;;;;;2.88;1.10;;;18.50;74.10;;;;;;6241767;23;20300;-73
2022/08/04 12:06:16;;;;;;;1.85;1.02;;;18.50;73.80;;;;;;6240932;23;20090;-72
2022/08/04 12:09:07;;;;;;;3.80;1.75;;;18.50;73.80;;;;;;6195635;23;20332;-71
2022/08/04 12:11:40;;;;;;;4.32;0.98;;;18.50;73.60;;;;;;6241307;23;20461;-72
2022/08/04 12:14:15;;;;;;;3.83;0.73;;;18.50;73.40;;;;;;6240766;23;20429;-71
2022/08/04 12:16:51;;;;;;;3.13;1.20;;;18.50;73.30;;;;;;6214920;23;20023;-71
2022/08/04 12:19:24;;;;;;;15.55;1.73;;;18.40;73.40;;;;;;6241121;23;20000;-72
2022/08/04 12:21:55;;;;;;;5.65;2.17;;;18.40;73.60;;;;;;6241728;23;20327;-71
2022/08/04 12:24:26;;;;;;;9.85;1.38;;;18.40;73.80;;;;;;6240072;23;20016;-70
2022/08/04 12:26:57;;;;;;;7.18;3.17;;;18.30;73.80;;;;;;6240481;23;20431;-73
2022/08/04 12:29:30;;;;;;;8.23;3.33;;;18.30;73.70;;;;;;6239622;23;20007;-73
2022/08/04 12:32:03;;;;;;;6.32;2.15;;;18.30;73.90;;;;;;6240173;23;20024;-72
2022/08/04 12:35:02;;;;;;;2.92;1.73;;;18.30;74.00;;;;;;6242124;23;20486;-72
2022/08/04 12:37:41;;;;;;;16.40;2.13;;;18.30;74.20;;;;;;6200373;23;20455;-72
2022/08/04 12:40:24;;;;;;;1.92;1.17;;;18.20;74.20;;;;;;6240360;23;20016;-72
2022/08/04 12:43:05;;;;;;;7.88;1.50;;;18.30;74.30;;;;;;6241216;23;20047;-71
2022/08/04 12:45:33;;;;;;;3.35;1.10;;;18.20;73.90;;;;;;6240492;23;20012;-72
2022/08/04 12:48:00;;;;;;;1.90;0.88;;;18.20;73.70;;;;;;6242112;23;20004;-72
2022/08/04 12:50:28;;;;;;;2.95;1.88;;;18.20;73.20;;;;;;6241595;23;20000;-72
2022/08/04 12:52:57;;;;;;;4.15;1.00;;;18.20;73.20;;;;;;6240771;23;20003;-71
2022/08/04 12:55:28;;;;;;;2.35;0.90;;;18.20;72.10;;;;;;6241524;23;20023;-74
2022/08/04 12:57:55;;;;;;;4.25;1.45;;;18.20;71.90;;;;;;6240404;23;20004;-72
2022/08/04 13:01:02;;;;;;;6.63;1.30;;;18.10;71.60;;;;;;6240628;23;20004;-73
2022/08/04 13:03:52;;;;;;;1.80;0.82;;;18.10;71.20;;;;;;6207012;23;20119;-72
2022/08/04 13:06:42;;;;;;;3.35;1.13;;;18.10;71.00;;;;;;6240345;23;20015;-71
2022/08/04 13:09:16;;;;;;;3.47;0.95;;;18.00;70.80;;;;;;6240890;23;20030;-74
2022/08/04 13:11:49;;;;;;;18.33;1.75;;;18.00;71.20;;;;;;6232539;23;20416;-73
2022/08/04 13:14:17;;;;;;;6.75;1.08;;;18.00;72.10;;;;;;6240419;23;20000;-72
2022/08/04 13:16:43;;;;;;;4.57;1.08;;;18.00;72.60;;;;;;6241307;23;20015;-74
2022/08/04 13:19:11;;;;;;;3.47;1.80;;;18.00;72.50;;;;;;6240133;23;20000;-72
2022/08/04 13:21:46;;;;;;;1.35;0.90;;;17.90;72.50;;;;;;6241045;23;20000;-72
2022/08/04 13:24:16;;;;;;;26.88;2.85;;;17.90;72.70;;;;;;6239939;23;20722;-72
2022/08/04 13:26:57;;;;;;;9.60;5.65;;;17.90;72.90;;;;;;6240860;23;20071;-72
2022/08/04 13:29:30;;;;;;;5.20;1.90;;;17.80;73.90;;;;;;6241692;23;20004;-72
2022/08/04 13:31:58;;;;;;;5.35;1.35;;;17.80;73.90;;;;;;6240447;23;20015;-74
2022/08/04 13:34:26;;;;;;;3.83;1.30;;;17.80;73.60;;;;;;6240783;23;19996;-72
2022/08/04 13:36:55;;;;;;;5.22;1.73;;;17.80;73.40;;;;;;6239316;23;20293;-73
2022/08/04 13:39:23;;;;;;;4.35;1.25;;;17.80;73.30;;;;;;6241702;23;20003;-73
2022/08/04 13:41:57;;;;;;;5.97;1.10;;;17.70;73.80;;;;;;6240002;23;19996;-72
2022/08/04 13:44:28;;;;;;;5.63;1.30;;;17.70;72.90;;;;;;6240530;23;20036;-72
2022/08/04 13:47:02;;;;;;;3.85;1.20;;;17.70;72.80;;;;;;6241022;23;20004;-75
2022/08/04 13:49:28;;;;;;;2.78;0.98;;;17.70;72.60;;;;;;6240147;23;20131;-73
2022/08/04 13:52:00;;;;;;;0.93;0.77;;;17.60;72.30;;;;;;6240238;23;20007;-74
2022/08/04 13:54:42;;;;;;;1.45;1.05;;;17.60;72.20;;;;;;6239574;23;20034;-72
2022/08/04 13:57:28;;;;;;;3.42;0.50;;;17.60;72.20;;;;;;6240954;23;20004;-73
2022/08/04 14:00:00;;;;;;;1.33;0.70;;;17.60;72.20;;;;;;6242125;23;20075;-72
2022/08/04 14:02:57;;;;;;;2.42;0.90;;;17.50;72.80;;;;;;6239051;23;20470;-72
2022/08/04 14:05:27;;;;;;;1.02;0.98;;;17.50;72.00;;;;;;6240719;23;20012;-73
2022/08/04 14:08:11;;;;;;;2.65;0.70;;;17.50;72.10;;;;;;6239326;23;20031;-74
2022/08/04 14:10:39;;;;;;;2.42;0.68;;;17.40;72.20;;;;;;6240063;23;20636;-72
2022/08/04 14:13:06;;;;;;;2.38;1.85;;;17.40;72.30;;;;;;6241239;23;20000;-72
2022/08/04 14:15:40;;;;;;;9.77;0.98;;;17.40;72.50;;;;;;6238504;23;20016;-72
2022/08/04 14:18:25;;;;;;;14.02;2.08;;;17.40;72.70;;;;;;6240555;23;20035;-74
2022/08/04 14:21:10;;;;;;;4.47;0.95;;;17.40;73.00;;;;;;6239183;23;20000;-73
2022/08/04 14:23:52;;;;;;;7.68;1.63;;;17.30;73.40;;;;;;6240668;23;20048;-74
2022/08/04 14:26:31;;;;;;;8.88;1.70;;;17.30;73.80;;;;;;6241124;23;20004;-71
2022/08/04 14:29:12;;;;;;;14.68;1.77;;;17.40;75.30;;;;;;6239056;23;20005;-73
2022/08/04 14:31:39;;;;;;;4.30;1.80;;;17.40;75.80;;;;;;6240198;23;20057;-74
2022/08/04 14:34:06;;;;;;;3.15;1.58;;;17.40;76.00;;;;;;6239785;23;20000;-74
2022/08/04 14:36:43;;;;;;;4.32;1.77;;;17.40;76.10;;;;;;6240155;23;20435;-75
2022/08/04 14:39:11;;;;;;;7.07;0.98;;;17.40;76.20;;;;;;6240879;23;20366;-75
2022/08/04 14:41:49;;;;;;;7.20;0.98;;;17.40;76.10;;;;;;6239609;23;19997;-76
2022/08/04 14:44:16;;;;;;;6.18;1.50;;;17.40;75.80;;;;;;6241397;23;20461;-75
2022/08/04 14:46:50;;;;;;;6.22;1.83;;;17.40;75.90;;;;;;6239577;23;20079;-75
2022/08/04 14:49:20;;;;;;;14.77;3.15;;;17.40;76.00;;;;;;6240758;23;19996;-75
2022/08/04 14:51:58;;;;;;;20.30;3.28;;;17.40;75.80;;;;;;6241719;23;20376;-75
2022/08/04 14:54:27;;;;;;;10.35;4.00;;;17.40;76.10;;;;;;6241629;23;20004;-75
2022/08/04 14:56:57;;;;;;;8.98;3.22;;;17.40;76.50;;;;;;6243611;23;20000;-74
2022/08/04 14:59:24;;;;;;;8.10;2.65;;;17.40;76.60;;;;;;6241718;23;20309;-73
2022/08/04 15:01:51;;;;;;;11.65;5.50;;;17.40;76.70;;;;;;6242659;23;19997;-74
2022/08/04 15:04:18;;;;;;;10.70;5.07;;;17.50;76.90;;;;;;6242346;23;20008;-74
2022/08/04 15:06:46;;;;;;;6.72;2.72;;;17.50;76.90;;;;;;6241945;23;20000;-74
2022/08/04 15:09:13;;;;;;;8.73;2.08;;;17.50;76.60;;;;;;6242632;23;19996;-74
2022/08/04 15:11:39;;;;;;;8.77;1.90;;;17.50;76.30;;;;;;6214927;23;20030;-74
2022/08/04 15:14:07;;;;;;;10.85;1.77;;;17.40;76.30;;;;;;6243423;23;20338;-75
2022/08/04 15:16:33;;;;;;;15.23;3.20;;;17.40;76.40;;;;;;6241284;23;20265;-75
2022/08/04 15:19:00;;;;;;;9.57;2.55;;;17.40;76.90;;;;;;6242383;23;20004;-74
2022/08/04 15:21:29;;;;;;;22.58;2.90;;;17.40;77.20;;;;;;6241039;23;19997;-75
2022/08/04 15:23:57;;;;;;;1.13;1.00;;;17.40;77.30;;;;;;6242157;23;20044;-76
2022/08/04 15:26:54;;;;;;;4.05;1.65;;;17.50;77.60;;;;;;6242538;23;20006;-75
2022/08/04 15:29:30;;;;;;;2.00;1.05;;;17.40;77.90;;;;;;6241031;23;20004;-74
2022/08/04 15:32:01;;;;;;;26.13;3.53;;;17.40;78.10;;;;;;6242505;23;20000;-77
2022/08/04 15:34:43;;;;;;;6.85;2.95;;;17.40;78.20;;;;;;6214491;23;20008;-75
2022/08/04 15:37:12;;;;;;;5.45;3.67;;;17.40;78.20;;;;;;6242318;23;20011;-75
2022/08/04 15:39:47;;;;;;;10.82;2.63;;;17.40;78.30;;;;;;6241905;23;20004;-74
2022/08/04 15:42:51;;;;;;;5.82;1.98;;;17.40;78.50;;;;;;6241225;23;20330;-76
2022/08/04 15:45:23;;;;;;;8.88;2.70;;;17.40;78.60;;;;;;6120061;23;20041;-75
2022/08/04 15:48:05;;;;;;;6.32;1.95;;;17.40;78.70;;;;;;6221928;23;20496;-77
2022/08/04 15:50:32;;;;;;;8.05;3.58;;;17.40;78.80;;;;;;6241238;23;19992;-75
2022/08/04 15:52:59;;;;;;;6.03;1.70;;;17.40;78.80;;;;;;6242002;23;19996;-75